createdAt,value
2022-12-15T00:02:10.567Z,40.40
2022-12-15T00:04:55.387Z,34.57
2022-12-15T00:07:40.248Z,34.87
2022-12-15T00:10:25.591Z,32.53
2022-12-15T00:13:10.923Z,30.30
2022-12-15T00:15:55.857Z,34.80
2022-12-15T00:18:40.834Z,35.07
2022-12-15T00:21:25.819Z,32.77
2022-12-15T00:24:10.605Z,36.83
2022-12-15T00:26:55.379Z,39.00
2022-12-15T00:29:40.624Z,34.03
2022-12-15T00:32:25.454Z,37.70
2022-12-15T00:35:10.188Z,33.57
2022-12-15T00:37:55.040Z,42.07
2022-12-15T00:40:21.486Z,34.30
2022-12-15T00:42:49.497Z,35.00
2022-12-15T00:45:16.683Z,37.60
2022-12-15T00:47:43.098Z,40.47
2022-12-15T00:50:28.574Z,34.80
2022-12-15T00:53:13.302Z,35.00
2022-12-15T00:55:58.113Z,38.20
2022-12-15T00:58:42.999Z,41.03
2022-12-15T01:01:29.404Z,37.57
2022-12-15T01:04:14.767Z,37.53
2022-12-15T01:06:59.860Z,41.60
2022-12-15T01:09:45.223Z,36.63
2022-12-15T01:12:30.020Z,36.87
2022-12-15T01:15:14.741Z,38.20
2022-12-15T01:17:59.716Z,36.93
2022-12-15T01:20:26.329Z,38.07
2022-12-15T01:22:56.027Z,37.53
2022-12-15T01:25:24.503Z,42.20
2022-12-15T01:27:51.476Z,35.17
2022-12-15T01:30:20.362Z,38.10
2022-12-15T01:32:46.826Z,38.63
2022-12-15T01:35:13.529Z,37.53
2022-12-15T01:37:40.137Z,36.40
2022-12-15T01:40:27.728Z,39.93
2022-12-15T01:42:54.277Z,42.90
2022-12-15T01:45:23.710Z,52.63
2022-12-15T01:48:00.760Z,55.13
2022-12-15T01:50:29.475Z,55.50
2022-12-15T01:52:55.935Z,51.43
2022-12-15T01:55:27.900Z,47.93
2022-12-15T01:57:59.666Z,50.67
2022-12-15T02:00:26.625Z,48.03
2022-12-15T02:02:54.198Z,56.80
2022-12-15T02:05:21.886Z,53.00
2022-12-15T02:07:48.337Z,54.03
2022-12-15T02:10:16.591Z,50.67
2022-12-15T02:12:45.907Z,52.97
2022-12-15T02:15:35.441Z,59.20
2022-12-15T02:18:21.506Z,56.77
2022-12-15T02:21:09.223Z,51.87
2022-12-15T02:23:50.824Z,57.00
2022-12-15T02:26:51.351Z,55.10
2022-12-15T02:29:50.124Z,58.47
2022-12-15T02:32:31.697Z,50.93
2022-12-15T02:35:10.838Z,49.17
2022-12-15T02:37:40.866Z,53.30
2022-12-15T02:40:10.126Z,52.77
2022-12-15T02:42:42.723Z,54.63
2022-12-15T02:45:15.755Z,55.30
2022-12-15T02:47:51.274Z,56.90
2022-12-15T02:50:47.628Z,58.87
2022-12-15T02:53:47.133Z,50.17
2022-12-15T02:56:39.170Z,55.30
2022-12-15T02:59:25.215Z,51.90
2022-12-15T03:02:06.075Z,52.13
2022-12-15T03:04:37.206Z,52.90
2022-12-15T03:07:08.099Z,63.40
2022-12-15T03:09:34.618Z,56.27
2022-12-15T03:12:01.140Z,50.93
2022-12-15T03:14:28.217Z,52.30
2022-12-15T03:16:55.359Z,60.37
2022-12-15T03:19:22.333Z,56.93
2022-12-15T03:21:48.778Z,54.47
2022-12-15T03:24:15.340Z,49.00
2022-12-15T03:26:42.052Z,49.60
2022-12-15T03:29:08.462Z,54.23
2022-12-15T03:31:34.959Z,49.97
2022-12-15T03:34:02.066Z,47.77
2022-12-15T03:36:28.489Z,51.70
2022-12-15T03:38:59.010Z,54.40
2022-12-15T03:41:25.542Z,55.30
2022-12-15T03:43:51.986Z,52.07
2022-12-15T03:46:18.418Z,49.33
2022-12-15T03:48:44.887Z,44.90
2022-12-15T03:51:11.438Z,48.73
2022-12-15T03:53:37.887Z,55.33
2022-12-15T03:56:04.461Z,52.77
2022-12-15T03:58:30.885Z,50.20
2022-12-15T04:00:57.417Z,47.90
2022-12-15T04:03:24.028Z,49.73
2022-12-15T04:05:50.869Z,49.57
2022-12-15T04:08:17.345Z,50.40
2022-12-15T04:10:43.809Z,46.30
2022-12-15T04:13:11.769Z,48.53
2022-12-15T04:15:39.633Z,52.77
2022-12-15T04:18:12.690Z,45.70
2022-12-15T04:20:40.477Z,55.57
2022-12-15T04:23:10.273Z,52.63
2022-12-15T04:25:55.482Z,51.67
2022-12-15T04:28:40.473Z,56.73
2022-12-15T04:31:31.955Z,52.70
2022-12-15T04:34:21.873Z,57.33
2022-12-15T04:37:10.334Z,48.83
2022-12-15T04:39:58.193Z,58.03
2022-12-15T04:42:43.994Z,59.87
2022-12-15T04:45:30.917Z,68.37
2022-12-15T04:48:15.748Z,59.00
2022-12-15T04:51:00.614Z,60.30
2022-12-15T04:53:45.571Z,58.40
2022-12-15T04:56:32.955Z,66.07
2022-12-15T04:59:18.822Z,60.03
2022-12-15T05:02:04.004Z,55.30
2022-12-15T05:04:49.251Z,61.50
2022-12-15T05:07:34.467Z,60.97
2022-12-15T05:10:19.430Z,60.30
2022-12-15T05:13:04.317Z,63.13
2022-12-15T05:15:51.612Z,63.50
2022-12-15T05:18:37.301Z,65.10
2022-12-15T05:21:22.470Z,60.57
2022-12-15T05:24:07.453Z,65.40
2022-12-15T05:26:53.160Z,69.47
2022-12-15T05:29:39.512Z,62.90
2022-12-15T05:32:07.177Z,88.77
2022-12-15T05:34:35.712Z,87.97
2022-12-15T05:37:04.179Z,87.23
2022-12-15T05:39:30.876Z,67.50
2022-12-15T05:41:57.395Z,86.80
2022-12-15T05:44:24.951Z,76.37
2022-12-15T05:46:51.489Z,75.80
2022-12-15T05:49:18.451Z,69.77
2022-12-15T05:51:47.561Z,65.10
2022-12-15T05:54:16.954Z,67.20
2022-12-15T05:56:43.807Z,72.87
2022-12-15T05:59:10.372Z,67.60
2022-12-15T06:01:37.027Z,69.77
2022-12-15T06:04:03.933Z,64.20
2022-12-15T06:06:30.426Z,61.70
2022-12-15T06:08:56.956Z,80.83
2022-12-15T06:11:23.574Z,90.50
2022-12-15T06:13:50.272Z,81.90
2022-12-15T06:16:19.539Z,94.10
2022-12-15T06:18:50.478Z,91.03
2022-12-15T06:21:19.673Z,87.40
2022-12-15T06:23:47.040Z,97.90
2022-12-15T06:26:19.302Z,80.73
2022-12-15T06:28:46.588Z,75.80
2022-12-15T06:31:14.429Z,60.20
2022-12-15T06:33:41.613Z,63.23
2022-12-15T06:36:13.291Z,62.57
2022-12-15T06:38:43.396Z,67.80
2022-12-15T06:41:12.131Z,69.57
2022-12-15T06:43:38.860Z,62.27
2022-12-15T06:46:05.885Z,59.50
2022-12-15T06:48:32.453Z,53.43
2022-12-15T06:51:05.035Z,60.30
2022-12-15T06:53:32.194Z,64.93
2022-12-15T06:56:02.089Z,59.27
2022-12-15T06:58:29.033Z,63.70
2022-12-15T07:00:56.166Z,55.93
2022-12-15T07:03:22.791Z,58.47
2022-12-15T07:05:59.960Z,63.33
2022-12-15T07:08:31.414Z,61.20
2022-12-15T07:10:59.684Z,56.20
2022-12-15T07:13:26.126Z,56.57
2022-12-15T07:15:52.712Z,66.77
2022-12-15T07:18:19.273Z,61.30
2022-12-15T07:20:45.773Z,56.20
2022-12-15T07:23:16.330Z,70.60
2022-12-15T07:25:42.802Z,60.03
2022-12-15T07:28:09.653Z,61.80
2022-12-15T07:30:38.883Z,63.90
2022-12-15T07:33:08.748Z,70.57
2022-12-15T07:35:35.246Z,64.57
2022-12-15T07:38:06.897Z,55.90
2022-12-15T07:40:33.770Z,63.97
2022-12-15T07:43:00.459Z,58.13
2022-12-15T07:45:27.016Z,60.97
2022-12-15T07:47:53.965Z,61.70
2022-12-15T07:50:20.424Z,65.20
2022-12-15T07:52:46.892Z,76.10
2022-12-15T07:55:13.383Z,64.87
2022-12-15T07:57:39.921Z,59.20
2022-12-15T08:00:09.124Z,63.13
2022-12-15T08:02:35.683Z,66.53
2022-12-15T08:05:02.263Z,64.23
2022-12-15T08:07:28.720Z,57.27
2022-12-15T08:09:55.163Z,63.40
2022-12-15T08:12:21.645Z,60.20
2022-12-15T08:14:50.173Z,61.07
2022-12-15T08:17:16.760Z,65.97
2022-12-15T08:19:43.627Z,65.43
2022-12-15T08:22:10.082Z,62.23
2022-12-15T08:24:36.531Z,60.13
2022-12-15T08:27:02.938Z,66.93
2022-12-15T08:32:15.930Z,72.97
2022-12-15T08:34:42.718Z,66.37
2022-12-15T08:37:09.180Z,66.33
2022-12-15T08:39:35.655Z,65.40
2022-12-15T08:42:02.116Z,67.77
2022-12-15T08:44:28.551Z,71.00
2022-12-15T08:46:55.003Z,68.50
2022-12-15T08:49:22.358Z,67.50
2022-12-15T08:51:50.718Z,67.57
2022-12-15T08:54:19.158Z,73.13
2022-12-15T08:56:45.606Z,69.37
2022-12-15T08:59:12.051Z,64.87
2022-12-15T09:01:40.367Z,76.70
2022-12-15T09:04:07.176Z,73.10
2022-12-15T09:06:35.684Z,78.03
2022-12-15T09:09:05.901Z,75.83
2022-12-15T09:11:32.399Z,69.90
2022-12-15T09:13:59.240Z,72.10
2022-12-15T09:16:27.745Z,68.83
2022-12-15T09:18:57.276Z,72.90
2022-12-15T09:21:26.722Z,70.20
2022-12-15T09:23:57.665Z,79.07
2022-12-15T09:26:24.181Z,82.03
2022-12-15T09:28:51.299Z,77.00
2022-12-15T09:31:28.257Z,71.60
2022-12-15T09:33:56.547Z,75.77
2022-12-15T09:36:23.805Z,72.40
2022-12-15T09:38:50.656Z,80.80
2022-12-15T09:41:20.673Z,70.80
2022-12-15T09:43:53.448Z,72.20
2022-12-15T09:46:38.974Z,78.97
2022-12-15T09:49:15.069Z,76.07
2022-12-15T09:51:50.546Z,72.50
2022-12-15T09:54:17.054Z,74.23
2022-12-15T09:56:58.084Z,80.27
2022-12-15T09:59:33.623Z,74.47
2022-12-15T10:02:19.481Z,75.67
2022-12-15T10:05:18.351Z,78.63
2022-12-15T10:07:46.505Z,72.53
2022-12-15T10:10:19.761Z,71.70
2022-12-15T10:12:55.503Z,70.33
2022-12-15T10:15:34.930Z,72.30
2022-12-15T10:18:18.814Z,68.27
2022-12-15T10:20:45.373Z,78.50
2022-12-15T10:23:17.432Z,74.40
2022-12-15T10:26:08.734Z,71.90
2022-12-15T10:29:02.937Z,72.83
2022-12-15T10:31:41.148Z,77.40
2022-12-15T10:34:21.848Z,78.77
2022-12-15T10:36:51.549Z,78.20
2022-12-15T10:39:18.385Z,76.83
2022-12-15T10:41:44.927Z,77.50
2022-12-15T10:44:31.896Z,79.30
2022-12-15T10:46:58.775Z,84.63
2022-12-15T10:49:25.336Z,76.83
2022-12-15T10:51:57.755Z,82.03
2022-12-15T10:54:30.661Z,78.30
2022-12-15T10:57:17.168Z,75.43
2022-12-15T10:59:43.622Z,71.17
2022-12-15T11:02:25.893Z,78.13
2022-12-15T11:05:00.194Z,75.47
2022-12-15T11:07:33.187Z,73.90
2022-12-15T11:10:01.814Z,73.30
2022-12-15T11:12:50.675Z,77.10
2022-12-15T11:15:23.139Z,75.37
2022-12-15T11:17:59.726Z,73.80
2022-12-15T11:20:35.396Z,78.13
2022-12-15T11:23:11.753Z,73.80
2022-12-15T11:25:49.334Z,73.07
2022-12-15T11:28:26.479Z,87.07
2022-12-15T11:31:00.202Z,83.27
2022-12-15T11:33:26.755Z,74.77
2022-12-15T11:35:56.894Z,84.57
2022-12-15T11:38:35.469Z,81.40
2022-12-15T11:41:22.036Z,76.00
2022-12-15T11:44:06.453Z,84.50
2022-12-15T11:46:46.134Z,75.03
2022-12-15T11:49:40.931Z,74.43
2022-12-15T11:52:26.017Z,82.07
2022-12-15T11:55:17.385Z,80.80
2022-12-15T11:57:50.521Z,79.77
2022-12-15T12:00:20.224Z,79.17
2022-12-15T12:03:36.550Z,76.27
2022-12-15T12:06:29.307Z,75.13
2022-12-15T12:09:17.488Z,80.03
2022-12-15T12:11:50.446Z,72.67
2022-12-15T12:14:50.651Z,84.87
2022-12-15T12:17:23.472Z,80.30
2022-12-15T12:19:57.928Z,77.80
2022-12-15T12:22:27.552Z,80.40
2022-12-15T12:25:02.243Z,73.37
2022-12-15T12:27:50.361Z,74.63
2022-12-15T12:30:20.820Z,79.37
2022-12-15T12:33:15.579Z,73.93
2022-12-15T12:36:00.352Z,72.20
2022-12-15T12:38:37.232Z,78.10
2022-12-15T12:41:10.959Z,78.27
2022-12-15T12:43:50.228Z,75.00
2022-12-15T12:46:39.951Z,75.47
2022-12-15T12:49:33.130Z,69.33
2022-12-15T12:52:04.106Z,74.53
2022-12-15T12:54:36.902Z,73.63
2022-12-15T12:57:12.684Z,75.13
2022-12-15T12:59:48.942Z,75.50
2022-12-15T13:02:15.704Z,71.70
2022-12-15T13:04:49.363Z,66.70
2022-12-15T13:07:40.947Z,66.23
2022-12-15T13:10:07.690Z,70.87
2022-12-15T13:12:54.449Z,67.00
2022-12-15T13:15:27.257Z,64.83
2022-12-15T13:18:09.393Z,66.73
2022-12-15T13:20:38.074Z,63.73
2022-12-15T13:23:19.779Z,69.67
2022-12-15T13:26:02.169Z,70.47
2022-12-15T13:28:42.830Z,68.70
2022-12-15T13:31:21.882Z,58.30
2022-12-15T13:34:01.116Z,57.63
2022-12-15T13:36:36.691Z,57.87
2022-12-15T13:39:12.379Z,61.40
2022-12-15T13:44:54.831Z,51.40
2022-12-15T13:47:40.331Z,48.07
2022-12-15T13:50:28.620Z,51.10
2022-12-15T13:55:59.002Z,48.33
2022-12-15T13:58:28.245Z,48.50
2022-12-15T14:00:56.896Z,51.37
2022-12-15T14:03:24.433Z,50.43
2022-12-15T14:05:59.367Z,50.63
2022-12-15T14:08:28.439Z,58.17
2022-12-15T14:33:18.017Z,63.20
2022-12-15T14:35:49.754Z,65.10
2022-12-15T14:38:21.321Z,65.77
2022-12-15T14:40:51.630Z,66.80
2022-12-15T14:43:24.776Z,70.50
2022-12-15T14:45:56.981Z,60.67
2022-12-15T14:48:42.661Z,70.60
2022-12-15T14:51:12.692Z,63.90
2022-12-15T14:53:41.868Z,69.37
2022-12-15T14:56:25.691Z,68.17
2022-12-15T14:59:05.877Z,60.90
2022-12-15T15:01:58.801Z,65.90
2022-12-15T15:03:11.193Z,55.73
2022-12-15T15:04:30.423Z,66.57
2022-12-15T15:07:00.252Z,64.03
2022-12-15T15:09:32.046Z,74.37
2022-12-15T15:12:07.845Z,77.47
2022-12-15T15:14:42.794Z,74.53
2022-12-15T15:17:36.524Z,67.00
2022-12-15T15:20:06.758Z,70.63
2022-12-15T15:22:40.980Z,65.60
2022-12-15T15:25:41.574Z,68.93
2022-12-15T15:28:27.158Z,67.03
2022-12-15T15:31:08.889Z,71.27
2022-12-15T15:33:38.148Z,67.20
2022-12-15T15:36:10.228Z,69.03
2022-12-15T15:38:41.428Z,66.47
2022-12-15T15:41:21.506Z,75.47
2022-12-15T15:43:48.216Z,67.50
2022-12-15T15:46:18.683Z,68.90
2022-12-15T15:48:50.518Z,65.53
2022-12-15T15:51:17.632Z,73.03
2022-12-15T15:53:45.210Z,74.70
2022-12-15T15:56:14.774Z,88.10
2022-12-15T15:58:43.686Z,97.20
2022-12-15T16:01:13.409Z,89.07
2022-12-15T16:03:40.528Z,80.73
2022-12-15T16:06:16.320Z,81.00
2022-12-15T16:08:43.451Z,78.37
2022-12-15T16:11:12.821Z,72.37
2022-12-15T16:13:39.418Z,79.60
2022-12-15T16:16:06.964Z,73.53
2022-12-15T16:18:33.968Z,81.87
2022-12-15T16:21:00.811Z,79.20
2022-12-15T16:23:29.222Z,71.40
2022-12-15T16:26:00.300Z,85.00
2022-12-15T16:28:29.213Z,76.13
2022-12-15T16:30:58.367Z,78.20
2022-12-15T16:33:25.757Z,77.47
2022-12-15T16:35:53.237Z,66.00
2022-12-15T16:38:27.524Z,70.53
2022-12-15T16:40:55.248Z,69.40
2022-12-15T16:43:24.591Z,68.77
2022-12-15T16:45:53.087Z,69.67
2022-12-15T16:48:20.236Z,73.63
2022-12-15T16:50:53.267Z,78.23
2022-12-15T16:53:33.173Z,85.70
2022-12-15T16:56:13.786Z,82.17
2022-12-15T16:58:40.276Z,78.33
2022-12-15T17:01:06.749Z,81.20
2022-12-15T17:03:33.617Z,76.77
2022-12-15T17:06:06.552Z,79.60
2022-12-15T17:08:43.540Z,75.23
2022-12-15T17:11:22.181Z,79.17
2022-12-15T17:13:51.318Z,78.27
2022-12-15T17:16:23.661Z,74.83
2022-12-15T17:18:51.446Z,72.33
2022-12-15T17:21:26.469Z,73.93
2022-12-15T17:23:58.220Z,73.97
2022-12-15T17:26:29.649Z,76.00
2022-12-15T17:29:01.103Z,72.60
2022-12-15T17:31:34.797Z,73.40
2022-12-15T17:34:08.441Z,71.37
2022-12-15T17:36:35.050Z,76.43
2022-12-15T17:39:01.811Z,78.50
2022-12-15T17:41:58.025Z,81.47
2022-12-15T17:44:39.300Z,91.07
2022-12-15T17:47:08.429Z,95.63
2022-12-15T17:49:37.712Z,81.33
2022-12-15T17:52:27.826Z,79.27
2022-12-15T17:54:55.010Z,79.80
2022-12-15T17:57:21.490Z,73.23
2022-12-15T17:59:48.451Z,73.23
2022-12-15T18:02:15.376Z,74.57
2022-12-15T18:04:42.986Z,70.17
2022-12-15T18:07:21.628Z,72.77
2022-12-15T18:09:50.172Z,70.83
2022-12-15T18:12:20.421Z,82.37
2022-12-15T18:14:47.769Z,78.10
2022-12-15T18:17:14.298Z,83.77
2022-12-15T18:19:40.810Z,92.77
2022-12-15T18:22:24.123Z,75.67
2022-12-15T18:24:52.822Z,73.23
2022-12-15T18:27:28.332Z,74.93
2022-12-15T18:29:56.417Z,97.87
2022-12-15T18:32:26.254Z,96.97
2022-12-15T18:34:53.811Z,108.17
2022-12-15T18:37:23.133Z,69.00
2022-12-15T18:39:50.597Z,73.43
2022-12-15T18:42:21.810Z,89.97
2022-12-15T18:44:51.170Z,99.90
2022-12-15T18:47:19.818Z,93.63
2022-12-15T18:49:46.475Z,84.47
2022-12-15T18:52:22.194Z,82.40
2022-12-15T18:54:50.303Z,86.60
2022-12-15T18:57:28.990Z,74.53
2022-12-15T19:00:01.654Z,83.33
2022-12-15T19:02:28.367Z,80.10
2022-12-15T19:04:54.927Z,86.57
2022-12-15T19:07:21.510Z,81.13
2022-12-15T19:09:49.508Z,78.43
2022-12-15T19:12:19.854Z,72.33
2022-12-15T19:14:48.913Z,63.83
2022-12-15T19:17:36.489Z,82.13
2022-12-15T19:20:25.765Z,82.53
2022-12-15T19:22:52.424Z,69.30
2022-12-15T19:25:26.654Z,72.40
2022-12-15T19:28:01.140Z,67.47
2022-12-15T19:30:30.435Z,66.13
2022-12-15T19:32:57.628Z,70.57
2022-12-15T19:35:24.839Z,79.33
2022-12-15T19:37:55.063Z,65.60
2022-12-15T19:40:28.402Z,72.77
2022-12-15T19:42:55.468Z,64.90
2022-12-15T19:45:31.204Z,67.67
2022-12-15T19:47:58.519Z,66.27
2022-12-15T19:50:31.530Z,62.03
2022-12-15T19:53:00.981Z,71.37
2022-12-15T19:55:33.631Z,71.27
2022-12-15T19:58:05.551Z,66.50
2022-12-15T20:00:31.975Z,68.27
2022-12-15T20:02:58.511Z,68.33
2022-12-15T20:05:25.651Z,68.30
2022-12-15T20:07:53.723Z,73.43
2022-12-15T20:10:31.967Z,68.30
2022-12-15T20:12:59.782Z,66.23
2022-12-15T20:15:26.612Z,69.23
2022-12-15T20:17:56.445Z,70.00
2022-12-15T20:20:25.659Z,69.67
2022-12-15T20:22:55.271Z,72.03
2022-12-15T20:25:28.741Z,62.63
2022-12-15T20:27:56.744Z,62.20
2022-12-15T20:30:26.543Z,67.73
2022-12-15T20:32:53.298Z,76.10
2022-12-15T20:35:21.779Z,63.87
2022-12-15T20:37:49.151Z,62.93
2022-12-15T20:40:21.913Z,67.90
2022-12-15T20:42:49.201Z,63.97
2022-12-15T20:45:18.058Z,61.63
2022-12-15T20:47:46.718Z,73.70
2022-12-15T20:50:36.244Z,67.40
2022-12-15T20:53:03.741Z,67.30
2022-12-15T20:55:31.405Z,59.43
2022-12-15T20:57:57.841Z,62.67
2022-12-15T21:00:24.282Z,63.43
2022-12-15T21:02:52.125Z,66.43
2022-12-15T21:05:24.448Z,61.50
2022-12-15T21:07:51.922Z,61.63
2022-12-15T21:10:21.042Z,63.97
2022-12-15T21:12:49.353Z,67.60
2022-12-15T21:15:22.130Z,67.43
2022-12-15T21:18:19.669Z,62.97
2022-12-15T21:20:41.366Z,66.53
2022-12-15T21:23:42.433Z,67.00
2022-12-15T21:26:10.471Z,62.70
2022-12-15T21:28:36.945Z,62.37
2022-12-15T21:31:03.668Z,62.40
2022-12-15T21:33:30.132Z,64.63
2022-12-15T21:35:56.704Z,61.50
2022-12-15T21:38:31.460Z,63.50
2022-12-15T21:41:00.626Z,58.27
2022-12-15T21:43:30.764Z,69.97
2022-12-15T21:45:58.224Z,60.77
2022-12-15T21:48:43.309Z,61.20
2022-12-15T21:51:13.559Z,63.50
2022-12-15T21:53:40.349Z,63.13
2022-12-15T21:56:07.104Z,60.80
2022-12-15T21:58:35.038Z,65.83
2022-12-15T22:01:01.825Z,69.93
2022-12-15T22:03:28.463Z,60.80
2022-12-15T22:05:54.865Z,70.63
2022-12-15T22:08:22.339Z,66.57
2022-12-15T22:10:50.966Z,68.77
2022-12-15T22:13:22.768Z,69.63
2022-12-15T22:15:53.010Z,62.73
2022-12-15T22:18:22.424Z,58.73
2022-12-15T22:20:50.407Z,61.30
2022-12-15T22:23:18.459Z,57.73
2022-12-15T22:25:51.124Z,59.97
2022-12-15T22:28:26.017Z,59.60
2022-12-15T22:30:54.030Z,58.33
2022-12-15T22:33:23.996Z,60.93
2022-12-15T22:35:52.108Z,61.20
2022-12-15T22:38:20.244Z,59.90
2022-12-15T22:40:53.517Z,60.40
2022-12-15T22:43:29.343Z,61.83
2022-12-15T22:45:56.181Z,67.87
2022-12-15T22:48:27.050Z,58.10
2022-12-15T22:50:53.474Z,60.00
2022-12-15T22:53:21.964Z,59.43
2022-12-15T22:55:49.591Z,56.40
2022-12-15T22:58:24.889Z,57.40
2022-12-15T23:00:54.949Z,64.00
2022-12-15T23:03:21.553Z,58.03
2022-12-15T23:05:48.495Z,59.40
2022-12-15T23:08:16.096Z,60.80
2022-12-15T23:11:01.260Z,65.00
2022-12-15T23:13:27.728Z,64.17
2022-12-15T23:16:12.934Z,74.80
2022-12-15T23:18:39.558Z,66.43
2022-12-15T23:21:07.916Z,63.77
2022-12-15T23:23:35.468Z,75.70
2022-12-15T23:26:02.922Z,68.33
2022-12-15T23:28:29.401Z,66.60
2022-12-15T23:30:55.968Z,63.80
2022-12-15T23:33:24.865Z,65.53
2022-12-15T23:35:56.288Z,63.60
2022-12-15T23:38:23.487Z,66.30
2022-12-15T23:40:53.062Z,67.53
2022-12-15T23:43:20.735Z,69.60
2022-12-15T23:45:56.973Z,66.80
2022-12-15T23:48:24.312Z,72.00
2022-12-15T23:50:50.724Z,72.90
2022-12-15T23:53:17.336Z,75.63
2022-12-15T23:55:43.854Z,62.73
2022-12-15T23:58:10.304Z,64.53
